Time;durP1;ratioP1;P1;durP2;ratioP2;P2;SDS_P1;SDS_P2;PMS_P1;PMS_P2;Temp;Humidity;BMP_temperature;BMP_pressure;BME280_temperature;BME280_humidity;BME280_pressure;Samples;Min_cycle;Max_cycle;Signal;HPM_P1;HPM_P2
2023/11/04 00:02:17;;;;;;;3.03;2.60;;;7.40;85.40;;;;;;4980634;28;20113;-62
2023/11/04 00:04:44;;;;;;;4.47;2.40;;;7.40;85.50;;;;;;4979001;28;20525;-61
2023/11/04 00:07:09;;;;;;;2.40;1.95;;;7.30;85.60;;;;;;4981027;28;20069;-63
2023/11/04 00:09:35;;;;;;;2.65;2.10;;;7.30;85.70;;;;;;4980149;28;20042;-63
2023/11/04 00:12:01;;;;;;;2.70;1.83;;;7.20;85.80;;;;;;4982080;28;20022;-63
2023/11/04 00:14:26;;;;;;;2.95;1.75;;;7.20;85.90;;;;;;4980226;28;20536;-61
2023/11/04 00:16:52;;;;;;;3.28;1.88;;;7.20;85.90;;;;;;4980123;28;20132;-63
2023/11/04 00:19:18;;;;;;;3.08;1.80;;;7.20;85.90;;;;;;4981383;28;20359;-61
2023/11/04 00:21:43;;;;;;;2.80;2.28;;;7.20;86.00;;;;;;4980454;28;20066;-63
2023/11/04 00:24:10;;;;;;;1.92;1.73;;;7.20;86.00;;;;;;4979840;28;20046;-63
2023/11/04 00:26:36;;;;;;;3.15;1.60;;;7.20;86.00;;;;;;4979172;28;20030;-63
2023/11/04 00:29:01;;;;;;;1.70;1.20;;;7.20;85.90;;;;;;4980700;28;20035;-63
2023/11/04 00:31:30;;;;;;;1.70;1.55;;;7.30;85.90;;;;;;4980421;28;20507;-62
2023/11/04 00:33:56;;;;;;;1.85;1.60;;;7.20;85.80;;;;;;4980235;28;20030;-62
2023/11/04 00:36:22;;;;;;;1.67;1.48;;;7.20;85.80;;;;;;4980743;28;20137;-63
2023/11/04 00:38:47;;;;;;;1.92;1.52;;;7.20;85.90;;;;;;4980714;28;20506;-63
2023/11/04 00:41:13;;;;;;;1.63;1.50;;;7.20;85.80;;;;;;4980190;28;20036;-63
2023/11/04 00:43:38;;;;;;;1.80;1.33;;;7.20;85.70;;;;;;4962155;28;20037;-63
2023/11/04 00:46:04;;;;;;;2.22;1.40;;;7.20;85.70;;;;;;4962435;28;20424;-63
2023/11/04 00:48:30;;;;;;;1.40;1.30;;;7.30;85.80;;;;;;4980122;28;20453;-62
2023/11/04 00:50:56;;;;;;;4.72;1.20;;;7.30;85.80;;;;;;4979719;28;20536;-62
2023/11/04 00:53:22;;;;;;;1.10;1.00;;;7.20;85.80;;;;;;4980025;28;20030;-62
2023/11/04 00:55:47;;;;;;;1.45;1.30;;;7.20;85.90;;;;;;4978594;28;20035;-62
2023/11/04 00:58:13;;;;;;;2.00;1.35;;;7.20;86.00;;;;;;4979554;28;20076;-63
2023/11/04 01:00:39;;;;;;;1.92;1.48;;;7.30;86.10;;;;;;4978914;28;20030;-63
2023/11/04 01:03:05;;;;;;;2.13;1.60;;;7.30;86.10;;;;;;4979177;28;20122;-62
2023/11/04 01:05:31;;;;;;;2.15;1.90;;;7.30;86.10;;;;;;4979397;28;20050;-63
2023/11/04 01:07:57;;;;;;;2.20;1.98;;;7.30;86.00;;;;;;4979538;28;20034;-63
2023/11/04 01:10:23;;;;;;;3.83;2.08;;;7.30;85.90;;;;;;4981337;28;20046;-62
2023/11/04 01:12:49;;;;;;;1.95;1.70;;;7.30;86.00;;;;;;4978822;28;20042;-61
2023/11/04 01:15:14;;;;;;;2.22;1.83;;;7.30;85.80;;;;;;4979429;28;20034;-63
2023/11/04 01:17:40;;;;;;;2.50;2.00;;;7.30;85.80;;;;;;4979369;28;20030;-63
2023/11/04 01:20:07;;;;;;;2.00;1.80;;;7.30;85.70;;;;;;4978872;28;20038;-63
2023/11/04 01:22:34;;;;;;;3.85;2.10;;;7.30;85.50;;;;;;4978944;28;20582;-63
2023/11/04 01:24:59;;;;;;;2.35;1.90;;;7.20;85.40;;;;;;4978615;28;20038;-62
2023/11/04 01:27:25;;;;;;;2.15;1.98;;;7.20;85.40;;;;;;4979398;28;20042;-63
2023/11/04 01:29:50;;;;;;;2.90;1.95;;;7.20;85.50;;;;;;4978920;28;20030;-63
2023/11/04 01:32:16;;;;;;;2.00;1.90;;;7.10;85.70;;;;;;4962585;28;20059;-63
2023/11/04 01:34:42;;;;;;;1.60;1.50;;;7.10;85.80;;;;;;4977988;28;20662;-62
2023/11/04 01:37:07;;;;;;;2.63;1.80;;;7.10;85.90;;;;;;4978283;28;20526;-61
2023/11/04 01:39:33;;;;;;;1.95;1.80;;;7.10;86.00;;;;;;4979086;28;20034;-62
2023/11/04 01:42:06;;;;;;;1.92;1.60;;;7.10;86.00;;;;;;4961378;28;20038;-63
2023/11/04 01:44:32;;;;;;;2.70;1.45;;;7.10;86.20;;;;;;4979234;28;20597;-61
2023/11/04 01:46:59;;;;;;;1.83;1.70;;;7.00;86.10;;;;;;4978081;28;20042;-63
2023/11/04 01:49:27;;;;;;;1.90;1.70;;;7.00;86.50;;;;;;4978533;28;20038;-63
2023/11/04 01:51:53;;;;;;;1.48;1.35;;;7.00;86.20;;;;;;4978157;28;20054;-62
2023/11/04 01:54:19;;;;;;;2.03;1.50;;;7.00;86.20;;;;;;4977985;28;20034;-62
2023/11/04 01:56:46;;;;;;;2.65;1.30;;;7.00;86.10;;;;;;4977490;28;20065;-62
2023/11/04 01:59:12;;;;;;;5.18;1.38;;;7.00;86.20;;;;;;4978113;28;20078;-63
2023/11/04 02:01:41;;;;;;;2.17;1.33;;;7.00;86.10;;;;;;4982988;28;20073;-63
2023/11/04 02:04:07;;;;;;;1.42;1.33;;;7.00;86.30;;;;;;4978592;28;20141;-63
2023/11/04 02:06:33;;;;;;;1.50;1.30;;;7.00;86.30;;;;;;4977951;28;20109;-63
2023/11/04 02:08:59;;;;;;;1.35;1.25;;;7.00;86.30;;;;;;4978328;28;20042;-63
2023/11/04 02:11:25;;;;;;;4.90;1.33;;;7.00;86.40;;;;;;4977015;28;20109;-63
2023/11/04 02:13:50;;;;;;;1.25;1.15;;;7.00;86.50;;;;;;4978637;28;20462;-63
2023/11/04 02:16:16;;;;;;;1.60;1.50;;;6.90;86.50;;;;;;4977894;28;20039;-63
2023/11/04 02:18:42;;;;;;;1.33;1.23;;;7.00;86.60;;;;;;4978621;28;20041;-63
2023/11/04 02:21:07;;;;;;;1.40;1.30;;;6.90;86.60;;;;;;4978956;28;20354;-63
2023/11/04 02:23:33;;;;;;;1.98;1.48;;;6.90;86.50;;;;;;4978352;28;20122;-63
2023/11/04 02:25:58;;;;;;;2.28;1.42;;;6.90;86.50;;;;;;4978028;28;20035;-62
2023/11/04 02:28:24;;;;;;;1.55;1.45;;;6.90;86.40;;;;;;4977455;28;20049;-63
2023/11/04 02:30:50;;;;;;;1.63;1.52;;;6.90;86.50;;;;;;4979275;28;20059;-61
2023/11/04 02:33:16;;;;;;;1.88;1.50;;;6.90;86.60;;;;;;4977890;28;20038;-61
2023/11/04 02:35:43;;;;;;;2.17;1.48;;;6.90;86.70;;;;;;4979061;28;20039;-61
2023/11/04 02:38:08;;;;;;;2.05;1.70;;;6.80;86.60;;;;;;4978403;28;20035;-62
2023/11/04 02:40:34;;;;;;;1.50;1.40;;;6.90;86.70;;;;;;4977747;28;20050;-62
2023/11/04 02:43:00;;;;;;;1.75;1.63;;;6.80;86.60;;;;;;4978406;28;20089;-62
2023/11/04 02:45:25;;;;;;;2.50;1.70;;;6.80;86.60;;;;;;4977634;28;20034;-63
2023/11/04 02:47:51;;;;;;;1.88;1.65;;;6.80;86.50;;;;;;4978162;28;20093;-63
2023/11/04 02:50:17;;;;;;;1.85;1.52;;;6.80;86.50;;;;;;4981936;28;20528;-62
2023/11/04 02:52:42;;;;;;;2.40;1.85;;;6.80;86.40;;;;;;4981719;28;20035;-63
2023/11/04 02:55:08;;;;;;;2.08;1.88;;;6.80;86.60;;;;;;4981066;28;20035;-63
2023/11/04 02:57:34;;;;;;;2.28;1.73;;;6.80;86.70;;;;;;4981803;28;20486;-63
2023/11/04 03:00:00;;;;;;;2.65;2.00;;;6.80;86.80;;;;;;4981681;28;20031;-63
2023/11/04 03:02:26;;;;;;;2.13;1.98;;;6.80;86.90;;;;;;4981950;28;20061;-63
2023/11/04 03:04:53;;;;;;;2.22;1.90;;;6.80;87.00;;;;;;4981471;28;20487;-61
2023/11/04 03:07:19;;;;;;;1.65;1.55;;;6.80;87.10;;;;;;4981436;28;20561;-61
2023/11/04 03:09:45;;;;;;;4.28;2.50;;;6.80;87.20;;;;;;4982432;28;20038;-62
2023/11/04 03:12:10;;;;;;;2.30;1.90;;;6.80;87.40;;;;;;4979895;28;20594;-63
2023/11/04 03:14:36;;;;;;;3.75;1.92;;;6.80;87.60;;;;;;4980785;28;20092;-62
2023/11/04 03:17:01;;;;;;;2.20;1.95;;;6.90;87.80;;;;;;4980926;28;20039;-62
2023/11/04 03:19:27;;;;;;;2.53;1.90;;;6.90;87.80;;;;;;4981420;28;20529;-62
2023/11/04 03:21:53;;;;;;;2.10;1.88;;;6.90;87.80;;;;;;4981346;28;20498;-63
2023/11/04 03:24:19;;;;;;;2.97;1.83;;;6.90;87.80;;;;;;4981075;28;20035;-63
2023/11/04 03:26:44;;;;;;;1.88;1.77;;;6.90;88.00;;;;;;4982497;28;20065;-61
2023/11/04 03:29:10;;;;;;;2.17;1.92;;;6.90;88.10;;;;;;4981457;28;20520;-63
2023/11/04 03:31:37;;;;;;;1.85;1.75;;;6.90;88.20;;;;;;4982052;28;20081;-63
2023/11/04 03:34:03;;;;;;;3.13;2.00;;;6.90;88.20;;;;;;4980550;28;20117;-63
2023/11/04 03:36:29;;;;;;;2.15;1.88;;;7.00;88.30;;;;;;4980437;28;20105;-62
2023/11/04 03:38:54;;;;;;;2.05;1.85;;;7.00;88.30;;;;;;4982105;28;20482;-63
2023/11/04 03:41:20;;;;;;;2.20;2.00;;;7.00;88.30;;;;;;4981179;28;20461;-62
2023/11/04 03:43:46;;;;;;;2.22;2.00;;;7.00;88.20;;;;;;4981861;28;20093;-62
2023/11/04 03:46:12;;;;;;;2.00;1.83;;;7.10;88.30;;;;;;4981217;28;20042;-62
2023/11/04 03:48:38;;;;;;;2.55;2.20;;;7.10;88.10;;;;;;4979832;28;20522;-61
2023/11/04 03:51:05;;;;;;;2.25;1.80;;;7.10;88.10;;;;;;4962234;28;20034;-63
2023/11/04 03:53:31;;;;;;;2.78;2.15;;;7.10;88.10;;;;;;4980183;28;20081;-62
2023/11/04 03:55:56;;;;;;;2.28;1.90;;;7.10;88.10;;;;;;4979726;28;20518;-63
2023/11/04 03:58:22;;;;;;;2.00;1.90;;;7.10;88.10;;;;;;4980191;28;20367;-63
2023/11/04 04:00:47;;;;;;;1.85;1.70;;;7.10;88.20;;;;;;4980656;28;20035;-63
2023/11/04 04:03:13;;;;;;;2.38;1.80;;;7.20;88.30;;;;;;4980208;28;20027;-63
2023/11/04 04:05:38;;;;;;;1.67;1.58;;;7.20;88.20;;;;;;4980035;28;20034;-62
2023/11/04 04:08:04;;;;;;;2.20;1.80;;;7.20;88.20;;;;;;4962496;28;20532;-63
2023/11/04 04:10:30;;;;;;;1.90;1.80;;;7.20;88.20;;;;;;4978913;28;20125;-63
2023/11/04 04:12:56;;;;;;;2.30;1.88;;;7.20;88.10;;;;;;4980109;28;20035;-63
2023/11/04 04:15:21;;;;;;;2.10;1.88;;;7.20;88.10;;;;;;4961326;28;20097;-62
2023/11/04 04:17:47;;;;;;;1.83;1.73;;;7.20;88.10;;;;;;4981020;28;20380;-63
2023/11/04 04:20:14;;;;;;;3.03;1.60;;;7.20;88.10;;;;;;4979983;28;20038;-62
2023/11/04 04:22:40;;;;;;;2.30;1.77;;;7.30;88.10;;;;;;4979582;28;20070;-63
2023/11/04 04:25:06;;;;;;;1.65;1.55;;;7.30;88.00;;;;;;4980121;28;20089;-63
2023/11/04 04:27:31;;;;;;;1.63;1.52;;;7.30;88.00;;;;;;4980199;28;20101;-63
2023/11/04 04:29:57;;;;;;;1.70;1.60;;;7.30;88.00;;;;;;4979895;28;20109;-63
2023/11/04 04:32:22;;;;;;;2.25;1.80;;;7.30;88.00;;;;;;4980681;28;20446;-63
2023/11/04 04:34:48;;;;;;;1.30;1.20;;;7.30;88.00;;;;;;4980751;28;20129;-63
2023/11/04 04:37:14;;;;;;;1.70;1.60;;;7.30;87.80;;;;;;4979809;28;20409;-62
2023/11/04 04:39:40;;;;;;;2.05;1.60;;;7.30;87.90;;;;;;4980756;28;20038;-63
2023/11/04 04:42:06;;;;;;;1.85;1.40;;;7.30;87.80;;;;;;4979005;28;20023;-63
2023/11/04 04:44:33;;;;;;;1.70;1.45;;;7.30;87.70;;;;;;4979977;28;20031;-63
2023/11/04 04:46:59;;;;;;;2.05;1.63;;;7.30;87.60;;;;;;4980862;28;20088;-62
2023/11/04 04:49:25;;;;;;;1.95;1.40;;;7.30;87.60;;;;;;4980760;28;20031;-62
2023/11/04 04:51:50;;;;;;;1.67;1.25;;;7.30;87.60;;;;;;4981556;28;20348;-63
2023/11/04 04:54:16;;;;;;;1.58;1.45;;;7.30;87.60;;;;;;4979646;28;20042;-62
2023/11/04 04:56:41;;;;;;;2.10;1.38;;;7.30;88.00;;;;;;4978784;28;20487;-62
2023/11/04 04:59:08;;;;;;;2.17;1.40;;;7.20;87.40;;;;;;4980546;28;20047;-63
2023/11/04 05:01:33;;;;;;;3.60;1.38;;;7.20;87.40;;;;;;4979799;28;20049;-63
2023/11/04 05:03:59;;;;;;;1.23;1.13;;;7.20;87.40;;;;;;4979385;28;20054;-63
2023/11/04 05:06:25;;;;;;;2.67;2.03;;;7.30;87.40;;;;;;4978655;28;20068;-62
2023/11/04 05:08:51;;;;;;;3.08;2.38;;;7.20;87.40;;;;;;4979725;28;20038;-63
2023/11/04 05:11:17;;;;;;;4.40;1.67;;;7.20;87.40;;;;;;4979715;28;20495;-63
2023/11/04 05:13:42;;;;;;;2.05;1.40;;;7.20;87.30;;;;;;4980276;28;20041;-62
2023/11/04 05:16:08;;;;;;;2.08;1.35;;;7.20;87.40;;;;;;4979824;28;20058;-62
2023/11/04 05:18:34;;;;;;;2.42;1.95;;;7.20;87.30;;;;;;4979127;28;20529;-63
2023/11/04 05:21:02;;;;;;;4.97;3.65;;;7.20;87.30;;;;;;4978990;28;20030;-63
2023/11/04 05:23:28;;;;;;;3.88;2.10;;;7.20;87.30;;;;;;4978935;28;20644;-61
2023/11/04 05:25:55;;;;;;;1.80;1.20;;;7.20;87.30;;;;;;4979236;28;20588;-63
2023/11/04 05:28:21;;;;;;;2.25;1.20;;;7.20;87.20;;;;;;4979757;28;20048;-62
2023/11/04 05:30:47;;;;;;;1.20;1.10;;;7.20;87.10;;;;;;4978651;28;20379;-62
2023/11/04 05:33:13;;;;;;;2.28;1.25;;;7.20;87.10;;;;;;4978597;28;20046;-61
2023/11/04 05:35:38;;;;;;;1.10;1.10;;;7.20;86.90;;;;;;4978965;28;20050;-62
2023/11/04 05:38:04;;;;;;;2.13;1.30;;;7.20;86.90;;;;;;4979092;28;20042;-63
2023/11/04 05:40:31;;;;;;;1.85;1.30;;;7.20;86.90;;;;;;4978646;28;20045;-62
2023/11/04 05:42:57;;;;;;;1.30;1.20;;;7.20;86.90;;;;;;4980080;28;20456;-62
2023/11/04 05:45:24;;;;;;;1.00;0.90;;;7.20;86.90;;;;;;4978560;28;20034;-63
2023/11/04 05:47:50;;;;;;;2.20;1.02;;;7.20;86.80;;;;;;4979241;28;20038;-62
2023/11/04 05:50:16;;;;;;;1.10;0.90;;;7.10;86.70;;;;;;4978598;28;20046;-62
2023/11/04 05:52:43;;;;;;;1.17;1.00;;;7.10;86.70;;;;;;4978251;28;20118;-63
2023/11/04 05:55:12;;;;;;;1.10;1.00;;;7.20;87.60;;;;;;4977317;28;20122;-63
2023/11/04 05:57:38;;;;;;;0.88;0.80;;;7.10;86.60;;;;;;4979013;28;20031;-63
2023/11/04 06:00:11;;;;;;;0.88;0.88;;;7.10;86.60;;;;;;4978550;28;20042;-62
2023/11/04 06:02:40;;;;;;;1.63;0.80;;;7.10;86.50;;;;;;4978373;28;20425;-62
2023/11/04 06:05:08;;;;;;;1.42;0.85;;;7.10;86.60;;;;;;4978188;28;20058;-62
2023/11/04 06:07:34;;;;;;;1.95;1.30;;;7.10;87.30;;;;;;4978188;28;20061;-63
2023/11/04 06:09:59;;;;;;;1.63;1.00;;;7.10;86.40;;;;;;4978103;28;20034;-62
2023/11/04 06:12:25;;;;;;;1.00;0.90;;;7.10;86.40;;;;;;4979769;28;20030;-62
2023/11/04 06:14:50;;;;;;;1.27;0.98;;;7.00;86.40;;;;;;4978056;28;20049;-63
2023/11/04 06:17:16;;;;;;;1.15;0.90;;;7.10;86.60;;;;;;4978510;28;20034;-63
2023/11/04 06:19:41;;;;;;;1.13;0.90;;;7.10;86.60;;;;;;4978578;28;20042;-63
2023/11/04 06:22:07;;;;;;;2.63;0.95;;;7.00;86.60;;;;;;4978188;28;20089;-63
2023/11/04 06:24:36;;;;;;;0.80;0.80;;;7.00;86.60;;;;;;4977716;28;20035;-63
2023/11/04 06:27:02;;;;;;;1.05;0.90;;;7.00;86.60;;;;;;4979080;28;20022;-63
2023/11/04 06:29:27;;;;;;;2.28;1.00;;;7.00;86.60;;;;;;4978099;28;20046;-63
2023/11/04 06:31:53;;;;;;;1.30;0.77;;;7.00;86.60;;;;;;4978641;28;20033;-62
2023/11/04 06:34:18;;;;;;;1.70;0.80;;;7.10;86.70;;;;;;4978545;28;20118;-62
2023/11/04 06:36:44;;;;;;;0.80;0.80;;;7.00;86.60;;;;;;4977662;28;20104;-62
2023/11/04 06:39:10;;;;;;;1.10;1.00;;;7.10;86.70;;;;;;4978790;28;20061;-63
2023/11/04 06:41:35;;;;;;;1.45;1.10;;;7.10;86.70;;;;;;4978344;28;20387;-63
2023/11/04 06:44:01;;;;;;;2.53;2.33;;;7.10;86.70;;;;;;4978466;28;20121;-61
2023/11/04 06:46:26;;;;;;;2.03;1.92;;;7.10;86.70;;;;;;4977777;28;20493;-63
2023/11/04 06:48:52;;;;;;;1.63;1.52;;;7.10;86.60;;;;;;4979547;28;20411;-63
2023/11/04 06:51:18;;;;;;;1.50;1.40;;;7.20;86.60;;;;;;4978226;28;20110;-62
2023/11/04 06:53:44;;;;;;;1.67;1.10;;;7.20;86.60;;;;;;4978322;28;20078;-62
2023/11/04 06:56:10;;;;;;;1.20;1.08;;;7.20;86.60;;;;;;4977846;28;20061;-63
2023/11/04 06:58:35;;;;;;;1.20;1.10;;;7.30;86.60;;;;;;4970460;28;20027;-63
2023/11/04 07:01:01;;;;;;;2.55;1.50;;;7.20;86.40;;;;;;4974008;28;20045;-59
2023/11/04 07:03:29;;;;;;;1.20;1.10;;;7.30;86.50;;;;;;4974247;28;20027;-63
2023/11/04 07:05:55;;;;;;;0.65;0.55;;;7.30;86.40;;;;;;4973314;28;20510;-61
2023/11/04 07:08:21;;;;;;;1.05;0.57;;;7.30;86.40;;;;;;4977241;28;20050;-62
2023/11/04 07:10:47;;;;;;;0.65;0.57;;;7.30;86.40;;;;;;4971769;28;20041;-63
2023/11/04 07:13:14;;;;;;;1.13;1.00;;;7.30;86.30;;;;;;4973260;28;20062;-63
2023/11/04 07:15:44;;;;;;;0.90;0.55;;;7.40;86.40;;;;;;4976661;28;20046;-63
2023/11/04 07:18:12;;;;;;;1.05;0.70;;;7.40;86.30;;;;;;4976937;28;20030;-63
2023/11/04 07:20:39;;;;;;;1.05;0.75;;;7.40;86.30;;;;;;4974351;28;20521;-62
2023/11/04 07:23:06;;;;;;;0.60;0.60;;;7.50;86.40;;;;;;4976291;28;20038;-63
2023/11/04 07:25:31;;;;;;;0.77;0.70;;;7.50;86.40;;;;;;4977660;28;20052;-62
2023/11/04 07:27:58;;;;;;;0.90;0.70;;;7.50;86.20;;;;;;4968620;28;20046;-63
2023/11/04 07:30:24;;;;;;;0.68;0.68;;;7.50;86.10;;;;;;4976229;28;20042;-63
2023/11/04 07:32:50;;;;;;;1.42;0.82;;;7.50;86.10;;;;;;4975543;28;20130;-63
2023/11/04 07:35:16;;;;;;;0.82;0.70;;;7.60;86.20;;;;;;4978259;28;20045;-63
2023/11/04 07:37:42;;;;;;;0.68;0.68;;;7.60;86.10;;;;;;4980830;28;20405;-63
2023/11/04 07:40:08;;;;;;;0.60;0.50;;;7.60;86.00;;;;;;4977015;28;20056;-64
2023/11/04 07:42:34;;;;;;;1.48;0.65;;;7.70;86.10;;;;;;4963103;28;20046;-63
2023/11/04 07:45:00;;;;;;;1.35;0.70;;;7.80;86.20;;;;;;4981656;28;20042;-62
2023/11/04 07:47:26;;;;;;;0.80;0.70;;;7.80;86.00;;;;;;4978667;28;20042;-63
2023/11/04 07:49:51;;;;;;;0.80;0.68;;;7.80;85.80;;;;;;4981081;28;20027;-63
2023/11/04 07:52:18;;;;;;;1.50;0.55;;;7.90;85.80;;;;;;4979702;28;20038;-63
2023/11/04 07:54:43;;;;;;;0.60;0.60;;;7.90;85.70;;;;;;4979440;28;20033;-63
2023/11/04 07:57:09;;;;;;;0.80;0.60;;;8.00;85.60;;;;;;4981217;28;20042;-63
2023/11/04 07:59:36;;;;;;;0.40;0.40;;;8.00;85.30;;;;;;4981884;28;20031;-63
2023/11/04 08:02:02;;;;;;;1.55;0.70;;;8.10;85.20;;;;;;4977911;28;20422;-61
2023/11/04 08:04:28;;;;;;;2.13;0.50;;;8.10;85.20;;;;;;4980257;28;20034;-63
2023/11/04 08:06:54;;;;;;;0.77;0.40;;;8.20;85.20;;;;;;4980404;28;20494;-62
2023/11/04 08:09:19;;;;;;;0.40;0.40;;;8.20;85.00;;;;;;4980782;28;20030;-63
2023/11/04 08:11:45;;;;;;;1.05;0.40;;;8.30;84.80;;;;;;4980008;28;20061;-63
2023/11/04 08:14:11;;;;;;;0.32;0.30;;;8.30;84.80;;;;;;4981014;28;20050;-63
2023/11/04 08:16:38;;;;;;;0.70;0.50;;;8.40;84.80;;;;;;4975357;28;20501;-64
2023/11/04 08:19:05;;;;;;;0.38;0.35;;;8.40;84.60;;;;;;4981617;28;20031;-63
2023/11/04 08:21:31;;;;;;;0.50;0.40;;;8.50;84.60;;;;;;4981233;28;20072;-63
2023/11/04 08:23:59;;;;;;;0.57;0.40;;;8.50;84.60;;;;;;4976994;28;20030;-63
2023/11/04 08:26:25;;;;;;;0.85;0.45;;;8.60;84.10;;;;;;4959508;28;20522;-63
2023/11/04 08:28:52;;;;;;;0.60;0.60;;;8.60;84.10;;;;;;4980362;28;20065;-62
2023/11/04 08:31:21;;;;;;;1.05;0.70;;;8.70;84.20;;;;;;4981381;28;20081;-62
2023/11/04 08:33:48;;;;;;;1.88;0.45;;;8.80;84.10;;;;;;4980666;28;20042;-63
2023/11/04 08:36:14;;;;;;;1.40;0.50;;;8.90;84.20;;;;;;4976909;28;20042;-64
2023/11/04 08:38:40;;;;;;;0.60;0.60;;;8.90;83.70;;;;;;4975726;28;20113;-62
2023/11/04 08:41:06;;;;;;;0.82;0.50;;;9.00;83.60;;;;;;4976986;28;20564;-64
2023/11/04 08:43:32;;;;;;;0.93;0.68;;;9.10;83.30;;;;;;4981651;28;20415;-63
2023/11/04 08:45:58;;;;;;;1.38;0.40;;;9.20;83.10;;;;;;4976900;28;20402;-63
2023/11/04 08:48:23;;;;;;;0.70;0.60;;;9.20;82.90;;;;;;4979286;28;20078;-63
2023/11/04 08:50:49;;;;;;;0.85;0.50;;;9.30;82.60;;;;;;4979034;28;20047;-63
2023/11/04 08:53:15;;;;;;;0.40;0.40;;;9.30;82.30;;;;;;4980467;28;20517;-63
2023/11/04 08:55:40;;;;;;;0.75;0.47;;;9.40;82.00;;;;;;4974996;28;20053;-63
2023/11/04 08:58:06;;;;;;;0.70;0.40;;;9.40;81.80;;;;;;4978379;28;20042;-62
2023/11/04 09:00:32;;;;;;;1.73;0.70;;;9.50;81.80;;;;;;4980271;28;20212;-63
2023/11/04 09:03:00;;;;;;;1.05;0.80;;;9.60;81.50;;;;;;4977541;28;20054;-64
2023/11/04 09:05:27;;;;;;;1.48;0.47;;;9.60;81.20;;;;;;4978879;28;20042;-63
2023/11/04 09:07:52;;;;;;;0.52;0.30;;;9.60;80.90;;;;;;4976938;28;20042;-62
2023/11/04 09:10:19;;;;;;;0.40;0.20;;;9.60;80.40;;;;;;4981876;28;20521;-61
2023/11/04 09:12:45;;;;;;;0.30;0.20;;;9.70;79.90;;;;;;4978688;28;20116;-63
2023/11/04 09:15:11;;;;;;;0.30;0.28;;;9.70;79.40;;;;;;4969977;28;20037;-63
2023/11/04 09:17:38;;;;;;;0.35;0.25;;;9.80;79.40;;;;;;4977796;28;20038;-63
2023/11/04 09:20:05;;;;;;;0.40;0.30;;;9.80;80.00;;;;;;4977450;28;20030;-64
2023/11/04 09:22:31;;;;;;;1.63;0.30;;;9.80;78.70;;;;;;4976989;28;20100;-63
2023/11/04 09:24:57;;;;;;;1.08;0.88;;;9.90;78.60;;;;;;4973669;28;20042;-63
2023/11/04 09:27:23;;;;;;;1.08;0.60;;;9.90;78.20;;;;;;4975517;28;20038;-63
2023/11/04 09:29:48;;;;;;;1.33;0.70;;;10.00;78.00;;;;;;4974026;28;20054;-63
2023/11/04 09:32:14;;;;;;;1.25;0.80;;;10.00;77.70;;;;;;4959456;28;20038;-64
2023/11/04 09:34:40;;;;;;;0.73;0.50;;;10.00;77.40;;;;;;4974340;28;20502;-63
2023/11/04 09:37:06;;;;;;;1.95;0.60;;;10.00;76.40;;;;;;4975815;28;20584;-63
2023/11/04 09:39:31;;;;;;;4.35;0.60;;;10.10;76.80;;;;;;4971491;28;20472;-64
2023/11/04 09:41:58;;;;;;;1.83;0.70;;;10.10;76.80;;;;;;4974186;28;20125;-61
2023/11/04 09:44:24;;;;;;;1.92;0.60;;;10.10;76.50;;;;;;4978972;28;20554;-63
2023/11/04 09:46:51;;;;;;;2.75;0.38;;;10.20;76.40;;;;;;4978654;28;20069;-64
2023/11/04 09:49:17;;;;;;;0.30;0.30;;;10.20;76.50;;;;;;4979554;28;20144;-64
2023/11/04 09:51:43;;;;;;;0.30;0.20;;;10.30;76.60;;;;;;4979288;28;20034;-64
2023/11/04 09:54:11;;;;;;;1.52;0.40;;;10.30;76.30;;;;;;4980063;28;20092;-63
2023/11/04 09:56:37;;;;;;;0.32;0.30;;;10.40;76.10;;;;;;4976942;28;20053;-63
2023/11/04 09:59:05;;;;;;;0.30;0.30;;;10.40;76.00;;;;;;4975398;28;20481;-62
2023/11/04 10:01:31;;;;;;;2.95;1.08;;;10.50;75.80;;;;;;4979079;28;20038;-65
2023/11/04 10:03:56;;;;;;;2.28;0.75;;;10.50;76.00;;;;;;4965373;28;20023;-62
2023/11/04 10:06:22;;;;;;;0.90;0.73;;;10.60;75.60;;;;;;4978249;28;20035;-63
2023/11/04 10:08:48;;;;;;;1.42;0.70;;;10.60;75.40;;;;;;4977769;28;20358;-64
2023/11/04 10:11:14;;;;;;;1.10;0.50;;;10.60;75.00;;;;;;4978403;28;20041;-64
2023/11/04 10:13:40;;;;;;;0.60;0.30;;;10.70;74.60;;;;;;4978621;28;20042;-63
2023/11/04 10:16:06;;;;;;;1.15;0.70;;;10.70;74.20;;;;;;4977723;28;20485;-63
2023/11/04 10:18:37;;;;;;;1.77;0.52;;;10.70;74.30;;;;;;4977780;28;20113;-63
2023/11/04 10:21:03;;;;;;;0.77;0.30;;;10.70;74.30;;;;;;4977266;28;20113;-64
2023/11/04 10:23:30;;;;;;;2.28;0.40;;;10.80;74.30;;;;;;4974085;28;20113;-65
2023/11/04 10:25:59;;;;;;;0.60;0.30;;;10.80;74.20;;;;;;4969607;28;20173;-64
2023/11/04 10:28:24;;;;;;;0.30;0.20;;;10.90;74.00;;;;;;4976435;28;20113;-64
2023/11/04 10:30:59;;;;;;;1.15;0.30;;;10.90;73.90;;;;;;4978179;28;20442;-63
2023/11/04 10:33:25;;;;;;;0.40;0.20;;;11.00;73.10;;;;;;4977546;28;20066;-63
2023/11/04 10:35:53;;;;;;;0.75;0.32;;;11.10;73.50;;;;;;4973991;28;20417;-63
2023/11/04 10:38:20;;;;;;;0.22;0.13;;;11.10;73.10;;;;;;4971115;28;20038;-63
2023/11/04 10:40:49;;;;;;;1.75;0.30;;;11.20;73.10;;;;;;4969458;28;21249;-64
2023/11/04 10:43:20;;;;;;;0.50;0.30;;;11.20;72.60;;;;;;4971898;28;20118;-64
2023/11/04 10:45:57;;;;;;;0.30;0.30;;;11.30;72.70;;;;;;4969516;28;20051;-63
2023/11/04 10:48:54;;;;;;;0.95;0.60;;;11.30;72.10;;;;;;4970750;28;20149;-63
2023/11/04 10:51:24;;;;;;;0.93;0.70;;;11.30;71.60;;;;;;4973818;28;20282;-63
2023/11/04 10:54:19;;;;;;;0.57;0.28;;;11.40;72.30;;;;;;4972248;28;20066;-64
2023/11/04 10:56:52;;;;;;;0.20;0.20;;;11.40;71.00;;;;;;4973038;28;20049;-64
2023/11/04 10:59:57;;;;;;;1.40;0.20;;;11.40;71.90;;;;;;4977054;28;20046;-64
2023/11/04 11:02:24;;;;;;;0.40;0.20;;;11.40;70.80;;;;;;4965295;28;20062;-64
2023/11/04 11:04:51;;;;;;;0.40;0.28;;;11.40;71.80;;;;;;4977946;28;20030;-63
2023/11/04 11:07:19;;;;;;;0.30;0.25;;;11.40;71.60;;;;;;4977905;28;20563;-64
2023/11/04 11:09:46;;;;;;;0.75;0.30;;;11.40;71.30;;;;;;4979801;28;20038;-63
2023/11/04 11:12:25;;;;;;;0.28;0.20;;;11.40;71.30;;;;;;4983644;28;20038;-63
2023/11/04 11:14:53;;;;;;;0.60;0.10;;;11.40;70.60;;;;;;4983083;28;20497;-63
2023/11/04 11:17:29;;;;;;;1.30;0.20;;;11.40;71.40;;;;;;4982871;28;20383;-63
2023/11/04 11:19:56;;;;;;;1.38;0.30;;;11.40;70.40;;;;;;4982550;28;20034;-64
2023/11/04 11:22:23;;;;;;;0.40;0.20;;;11.50;71.50;;;;;;4983415;28;20035;-63
2023/11/04 11:24:52;;;;;;;0.93;0.20;;;11.50;71.40;;;;;;4981718;28;20054;-62
2023/11/04 11:27:18;;;;;;;0.55;0.30;;;11.50;71.50;;;;;;4982458;28;20501;-63
2023/11/04 11:29:47;;;;;;;0.52;0.10;;;11.60;71.50;;;;;;4982527;28;20044;-63
2023/11/04 11:32:14;;;;;;;2.30;0.30;;;11.60;71.20;;;;;;4982174;28;20038;-63
2023/11/04 11:34:49;;;;;;;0.30;0.20;;;11.60;71.40;;;;;;4981850;28;20043;-64
2023/11/04 11:37:18;;;;;;;1.65;0.38;;;11.70;70.70;;;;;;4982757;28;20042;-63
2023/11/04 11:39:43;;;;;;;1.63;0.22;;;11.70;71.10;;;;;;4983892;28;20034;-61
2023/11/04 11:42:09;;;;;;;0.80;0.20;;;11.70;71.30;;;;;;4983183;28;20077;-63
2023/11/04 11:44:35;;;;;;;0.30;0.10;;;11.70;71.20;;;;;;4981731;28;20442;-62
2023/11/04 11:47:02;;;;;;;0.38;0.20;;;11.80;71.10;;;;;;4981646;28;20042;-63
2023/11/04 11:49:31;;;;;;;0.20;0.10;;;11.80;71.10;;;;;;4981438;28;20035;-63
2023/11/04 11:51:56;;;;;;;3.78;1.83;;;11.90;70.90;;;;;;4980920;28;20080;-63
2023/11/04 11:54:22;;;;;;;3.38;1.40;;;11.90;71.10;;;;;;4981019;28;20117;-63
2023/11/04 11:56:50;;;;;;;2.58;0.88;;;11.90;71.20;;;;;;4981829;28;20501;-64
2023/11/04 11:59:15;;;;;;;1.05;0.70;;;11.90;71.10;;;;;;4980988;28;20506;-63
2023/11/04 12:01:41;;;;;;;0.80;0.70;;;12.00;71.20;;;;;;4980827;28;20034;-63
2023/11/04 12:04:07;;;;;;;1.20;0.30;;;12.00;71.00;;;;;;4979279;28;20450;-63
2023/11/04 12:06:33;;;;;;;0.50;0.30;;;12.00;70.70;;;;;;4980681;28;20042;-63
2023/11/04 12:08:59;;;;;;;0.40;0.40;;;12.00;70.50;;;;;;4979373;28;20037;-63
2023/11/04 12:11:26;;;;;;;0.50;0.40;;;12.00;70.40;;;;;;4981159;28;20023;-63
2023/11/04 12:13:52;;;;;;;1.30;0.60;;;12.00;70.60;;;;;;4982013;28;20038;-63
2023/11/04 12:16:17;;;;;;;0.82;0.50;;;12.00;70.50;;;;;;4980060;28;20030;-63
2023/11/04 12:18:47;;;;;;;1.60;0.50;;;12.00;70.30;;;;;;4981053;28;20066;-61
2023/11/04 12:21:14;;;;;;;0.60;0.40;;;12.10;70.60;;;;;;4981672;28;20517;-63
2023/11/04 12:23:39;;;;;;;1.83;0.45;;;12.00;70.50;;;;;;4982052;28;20065;-62
2023/11/04 12:26:05;;;;;;;1.08;0.98;;;12.10;70.30;;;;;;4980930;28;20452;-62
2023/11/04 12:28:36;;;;;;;0.68;0.68;;;12.10;69.80;;;;;;4981164;28;20057;-63
2023/11/04 12:31:03;;;;;;;3.65;1.00;;;12.10;69.30;;;;;;4980478;28;20503;-60
2023/11/04 12:33:29;;;;;;;3.65;2.63;;;12.10;69.50;;;;;;4981555;28;20038;-63
2023/11/04 12:36:10;;;;;;;1.77;1.00;;;12.10;70.20;;;;;;4979778;28;20038;-63
2023/11/04 12:38:36;;;;;;;1.52;0.80;;;12.10;69.10;;;;;;4978988;28;20038;-62
2023/11/04 12:41:02;;;;;;;2.47;1.38;;;12.10;69.70;;;;;;4981079;28;20029;-62
2023/11/04 12:43:28;;;;;;;4.57;1.20;;;12.10;69.60;;;;;;4979900;28;20027;-63
2023/11/04 12:45:58;;;;;;;1.10;0.80;;;12.30;69.90;;;;;;4980844;28;20093;-63
2023/11/04 12:48:24;;;;;;;1.35;0.68;;;12.10;69.50;;;;;;4942256;28;1158981;-63
2023/11/04 12:50:50;;;;;;;1.15;0.43;;;12.20;69.50;;;;;;4980943;28;20127;-63
2023/11/04 12:53:18;;;;;;;1.95;0.98;;;12.20;69.30;;;;;;4979779;28;20093;-63